Time,TemperatureF,DewpointF,PressureIn,WindDirection,WindDirectionDegrees,WindSpeedMPH,WindSpeedGustMPH,Humidity,HourlyPrecipIn,Conditions,Clouds,dailyrainin,SoftwareType,DateUTC
2013-02-27 00:03:00,35.5,33.7,29.87,NE,34,5.0,5.0,93,0.00,,,0.00,Wunderground v.1.15,2013-02-27 05:03:00,
2013-02-27 00:07:00,35.5,33.7,29.88,ENE,67,5.0,5.0,93,0.00,,,0.00,Wunderground v.1.15,2013-02-27 05:07:00,
2013-02-27 00:18:00,35.7,33.9,29.86,NE,44,5.0,8.0,93,0.00,,,0.00,Wunderground v.1.15,2013-02-27 05:18:00,
2013-02-27 00:22:00,35.7,33.9,29.86,NE,51,5.0,5.0,93,0.00,,,0.00,Wunderground v.1.15,2013-02-27 05:22:00,
2013-02-27 00:32:00,35.8,34.0,29.86,NE,43,4.0,8.0,93,0.00,,,0.00,Wunderground v.1.15,2013-02-27 05:32:00,
2013-02-27 00:42:00,35.9,34.1,29.85,NE,38,4.0,4.0,93,0.00,,,0.00,Wunderground v.1.15,2013-02-27 05:42:00,
2013-02-27 00:47:00,35.9,34.1,29.85,NE,46,4.0,4.0,93,0.00,,,0.00,Wunderground v.1.15,2013-02-27 05:47:00,
2013-02-27 00:57:00,35.9,34.1,29.84,ESE,120,4.0,5.0,93,0.00,,,0.00,Wunderground v.1.15,2013-02-27 05:57:00,
2013-02-27 01:02:00,36.0,34.2,29.84,NE,53,4.0,4.0,93,0.00,,,0.00,Wunderground v.1.15,2013-02-27 06:02:00,
2013-02-27 01:12:00,36.1,34.3,29.83,ENE,58,5.0,7.0,93,0.00,,,0.00,Wunderground v.1.15,2013-02-27 06:12:00,
2013-02-27 01:17:00,36.2,34.4,29.83,NE,51,5.0,7.0,93,0.00,,,0.00,Wunderground v.1.15,2013-02-27 06:17:00,
2013-02-27 01:27:00,36.3,34.5,29.82,ENE,57,5.0,5.0,93,0.00,,,0.00,Wunderground v.1.15,2013-02-27 06:27:00,
2013-02-27 01:32:00,36.5,34.4,29.82,NE,46,5.0,5.0,92,0.00,,,0.00,Wunderground v.1.15,2013-02-27 06:32:00,
2013-02-27 01:42:00,36.6,34.8,29.81,ENE,71,5.0,5.0,93,0.00,,,0.00,Wunderground v.1.15,2013-02-27 06:42:00,
2013-02-27 01:47:00,36.6,34.5,29.81,East,80,5.0,5.0,92,0.00,,,0.00,Wunderground v.1.15,2013-02-27 06:47:00,
2013-02-27 01:57:00,36.7,34.9,29.81,East,90,4.0,5.0,93,0.00,,,0.00,Wunderground v.1.15,2013-02-27 06:57:00,
2013-02-27 02:02:00,36.8,35.0,29.80,NE,52,4.0,4.0,93,0.00,,,0.00,Wunderground v.1.15,2013-02-27 07:02:00,
2013-02-27 02:12:00,36.8,35.0,29.79,NNE,15,4.0,4.0,93,0.00,,,0.00,Wunderground v.1.15,2013-02-27 07:12:00,
2013-02-27 02:17:00,36.8,35.2,29.78,NE,42,4.0,4.0,94,0.00,,,0.00,Wunderground v.1.15,2013-02-27 07:17:00,
2013-02-27 02:27:00,37.1,35.3,29.78,NE,36,6.0,6.0,93,0.00,,,0.00,Wunderground v.1.15,2013-02-27 07:27:00,
2013-02-27 02:32:00,37.1,35.3,29.78,NE,51,5.0,5.0,93,0.00,,,0.00,Wunderground v.1.15,2013-02-27 07:32:00,
2013-02-27 02:42:00,37.1,35.5,29.77,NE,47,4.0,4.0,94,0.00,,,0.00,Wunderground v.1.15,2013-02-27 07:42:00,
2013-02-27 02:47:00,37.1,35.5,29.76,NE,46,5.0,5.0,94,0.00,,,0.00,Wunderground v.1.15,2013-02-27 07:47:00,
2013-02-27 02:57:00,37.2,35.6,29.76,NE,53,5.0,7.0,94,0.00,,,0.00,Wunderground v.1.15,2013-02-27 07:57:00,
2013-02-27 03:02:00,37.2,35.6,29.74,ENE,61,5.0,5.0,94,0.00,,,0.00,Wunderground v.1.15,2013-02-27 08:02:00,
2013-02-27 03:11:00,37.4,35.8,29.74,ENE,59,5.0,5.0,94,0.00,,,0.00,Wunderground v.1.15,2013-02-27 08:11:00,
2013-02-27 03:22:00,37.6,36.0,29.73,ENE,67,4.0,4.0,94,0.00,,,0.00,Wunderground v.1.15,2013-02-27 08:22:00,
2013-02-27 03:27:00,37.7,35.9,29.73,NE,55,4.0,4.0,93,0.00,,,0.00,Wunderground v.1.15,2013-02-27 08:27:00,
2013-02-27 03:32:00,37.8,36.0,29.72,NE,41,4.0,4.0,93,0.00,,,0.00,Wunderground v.1.15,2013-02-27 08:32:00,
2013-02-27 03:41:00,37.8,36.0,29.72,ENE,74,4.0,5.0,93,0.00,,,0.00,Wunderground v.1.15,2013-02-27 08:41:00,
2013-02-27 03:47:00,37.7,36.1,29.72,NE,47,4.0,5.0,94,0.00,,,0.00,Wunderground v.1.15,2013-02-27 08:47:00,
2013-02-27 03:57:00,37.8,36.2,29.71,East,80,4.0,5.0,94,0.00,,,0.00,Wunderground v.1.15,2013-02-27 08:57:00,
2013-02-27 04:02:00,37.9,36.3,29.70,NE,51,4.0,5.0,94,0.00,,,0.00,Wunderground v.1.15,2013-02-27 09:02:00,
2013-02-27 04:12:00,38.1,36.3,29.70,ENE,71,6.0,10.0,93,0.00,,,0.00,Wunderground v.1.15,2013-02-27 09:12:00,
2013-02-27 04:17:00,38.2,36.4,29.69,ENE,74,6.0,10.0,93,0.00,,,0.00,Wunderground v.1.15,2013-02-27 09:17:00,
2013-02-27 04:27:00,38.4,36.6,29.68,ENE,72,7.0,10.0,93,0.00,,,0.00,Wunderground v.1.15,2013-02-27 09:27:00,
2013-02-27 04:32:00,38.4,36.6,29.68,ENE,64,7.0,7.0,93,0.00,,,0.00,Wunderground v.1.15,2013-02-27 09:32:00,
2013-02-27 04:41:00,38.4,36.6,29.68,East,88,6.0,8.0,93,0.00,,,0.00,Wunderground v.1.15,2013-02-27 09:41:00,
2013-02-27 04:47:00,38.7,36.9,29.68,NE,44,6.0,8.0,93,0.00,,,0.00,Wunderground v.1.15,2013-02-27 09:47:00,
2013-02-27 04:56:00,38.7,36.9,29.67,ENE,61,6.0,6.0,93,0.00,,,0.00,Wunderground v.1.15,2013-02-27 09:56:00,
2013-02-27 05:02:00,38.8,36.9,29.67,ENE,75,5.0,5.0,93,0.00,,,0.00,Wunderground v.1.15,2013-02-27 10:02:00,
2013-02-27 05:11:00,38.9,36.8,29.66,NE,51,6.0,6.0,92,0.00,,,0.00,Wunderground v.1.15,2013-02-27 10:11:00,
2013-02-27 05:17:00,38.9,37.0,29.66,ENE,66,5.0,8.0,93,0.00,,,0.00,Wunderground v.1.15,2013-02-27 10:17:00,
2013-02-27 05:26:00,39.1,37.2,29.67,NNE,13,5.0,6.0,93,0.00,,,0.00,Wunderground v.1.15,2013-02-27 10:26:00,
2013-02-27 05:32:00,39.3,37.4,29.67,ENE,75,5.0,8.0,93,0.00,,,0.00,Wunderground v.1.15,2013-02-27 10:32:00,
2013-02-27 05:41:00,39.5,37.6,29.65,NE,56,5.0,5.0,93,0.00,,,0.00,Wunderground v.1.15,2013-02-27 10:41:00,
2013-02-27 05:47:00,39.4,37.5,29.65,NE,42,4.0,5.0,93,0.00,,,0.00,Wunderground v.1.15,2013-02-27 10:47:00,
2013-02-27 05:56:00,39.3,37.7,29.64,NE,51,4.0,5.0,94,0.00,,,0.00,Wunderground v.1.15,2013-02-27 10:56:00,
2013-02-27 06:02:00,39.2,37.6,29.64,NNE,32,4.0,4.0,94,0.00,,,0.00,Wunderground v.1.15,2013-02-27 11:02:00,
2013-02-27 06:11:00,39.0,37.4,29.64,ENE,58,4.0,4.0,94,0.00,,,0.00,Wunderground v.1.15,2013-02-27 11:11:00,
2013-02-27 06:17:00,39.0,37.4,29.64,NE,49,4.0,6.0,94,0.00,,,0.00,Wunderground v.1.15,2013-02-27 11:17:00,
2013-02-27 06:26:00,38.9,37.6,29.62,ENE,57,4.0,4.0,95,0.00,,,0.00,Wunderground v.1.15,2013-02-27 11:26:00,
2013-02-27 06:32:00,38.9,37.6,29.62,NE,46,4.0,4.0,95,0.00,,,0.00,Wunderground v.1.15,2013-02-27 11:32:00,
2013-02-27 06:41:00,39.1,37.8,29.61,NE,45,4.0,4.0,95,0.00,,,0.00,Wunderground v.1.15,2013-02-27 11:41:00,
2013-02-27 06:47:00,39.0,37.7,29.61,NNE,24,4.0,4.0,95,0.00,,,0.00,Wunderground v.1.15,2013-02-27 11:47:00,
2013-02-27 06:56:00,39.1,37.8,29.60,NE,51,4.0,5.0,95,0.00,,,0.00,Wunderground v.1.15,2013-02-27 11:56:00,
2013-02-27 07:02:00,39.1,37.8,29.59,ENE,61,4.0,7.0,95,0.00,,,0.00,Wunderground v.1.15,2013-02-27 12:02:00,
2013-02-27 07:11:00,39.7,38.4,29.60,NE,41,4.0,4.0,95,0.00,,,0.00,Wunderground v.1.15,2013-02-27 12:11:00,
2013-02-27 07:17:00,40.0,38.7,29.59,ENE,58,4.0,4.0,95,0.00,,,0.00,Wunderground v.1.15,2013-02-27 12:17:00,
2013-02-27 07:26:00,40.4,39.1,29.59,NE,54,4.0,7.0,95,0.00,,,0.00,Wunderground v.1.15,2013-02-27 12:26:00,
2013-02-27 07:32:00,40.6,39.3,29.58,NE,46,5.0,5.0,95,0.00,,,0.00,Wunderground v.1.15,2013-02-27 12:32:00,
2013-02-27 07:41:00,41.1,39.8,29.58,ENE,71,4.0,4.0,95,0.00,,,0.00,Wunderground v.1.15,2013-02-27 12:41:00,
2013-02-27 07:47:00,41.2,39.6,29.58,ENE,63,3.0,8.0,94,0.00,,,0.00,Wunderground v.1.15,2013-02-27 12:47:00,
2013-02-27 07:56:00,42.0,40.4,29.57,ENE,60,5.0,5.0,94,0.00,,,0.00,Wunderground v.1.15,2013-02-27 12:56:00,
2013-02-27 08:02:00,42.4,40.8,29.57,ENE,59,5.0,5.0,94,0.00,,,0.00,Wunderground v.1.15,2013-02-27 13:02:00,
2013-02-27 08:11:00,42.8,40.9,29.57,East,86,4.0,5.0,93,0.00,,,0.00,Wunderground v.1.15,2013-02-27 13:11:00,
2013-02-27 08:17:00,43.3,41.4,29.57,ENE,59,5.0,8.0,93,0.00,,,0.00,Wunderground v.1.15,2013-02-27 13:17:00,
2013-02-27 08:26:00,43.9,41.7,29.56,NNE,12,6.0,6.0,92,0.00,,,0.00,Wunderground v.1.15,2013-02-27 13:26:00,
2013-02-27 08:32:00,44.2,42.0,29.56,ENE,74,6.0,8.0,92,0.00,,,0.00,Wunderground v.1.15,2013-02-27 13:32:00,
2013-02-27 08:41:00,44.6,42.4,29.56,NE,49,6.0,6.0,92,0.00,,,0.00,Wunderground v.1.15,2013-02-27 13:41:00,
2013-02-27 08:47:00,44.7,42.5,29.56,NE,48,5.0,6.0,92,0.00,,,0.00,Wunderground v.1.15,2013-02-27 13:47:00,
2013-02-27 08:56:00,45.0,42.5,29.56,ENE,74,4.0,5.0,91,0.00,,,0.00,Wunderground v.1.15,2013-02-27 13:56:00,
2013-02-27 09:02:00,45.2,42.7,29.56,ENE,61,4.0,4.0,91,0.00,,,0.00,Wunderground v.1.15,2013-02-27 14:02:00,
2013-02-27 09:11:00,45.5,43.0,29.56,East,83,3.0,5.0,91,0.00,,,0.00,Wunderground v.1.15,2013-02-27 14:11:00,
2013-02-27 09:17:00,45.8,43.3,29.56,East,81,4.0,5.0,91,0.00,,,0.00,Wunderground v.1.15,2013-02-27 14:17:00,
2013-02-27 09:22:00,45.9,43.1,29.55,ENE,67,5.0,5.0,90,0.00,,,0.00,Wunderground v.1.15,2013-02-27 14:22:00,
2013-02-27 09:33:00,46.1,43.3,29.55,NE,46,4.0,4.0,90,0.00,,,0.00,Wunderground v.1.15,2013-02-27 14:33:00,
2013-02-27 09:42:00,46.3,43.5,29.55,ENE,68,3.0,3.0,90,0.00,,,0.00,Wunderground v.1.15,2013-02-27 14:42:00,
2013-02-27 09:48:00,46.4,43.3,29.55,NE,50,3.0,3.0,89,0.00,,,0.00,Wunderground v.1.15,2013-02-27 14:48:00,
2013-02-27 09:57:00,46.5,43.7,29.55,ENE,63,3.0,8.0,90,0.00,,,0.00,Wunderground v.1.15,2013-02-27 14:57:00,
2013-02-27 10:03:00,46.5,43.7,29.55,ENE,65,5.0,5.0,90,0.00,,,0.00,Wunderground v.1.15,2013-02-27 15:03:00,
2013-02-27 10:12:00,46.2,43.7,29.54,East,83,5.0,11.0,91,0.00,,,0.00,Wunderground v.1.15,2013-02-27 15:12:00,
2013-02-27 10:18:00,46.2,44.0,29.54,East,91,6.0,11.0,92,0.00,,,0.00,Wunderground v.1.15,2013-02-27 15:18:00,
2013-02-27 10:27:00,46.1,43.9,29.53,ENE,71,5.0,5.0,92,0.00,,,0.00,Wunderground v.1.15,2013-02-27 15:27:00,
2013-02-27 10:33:00,46.2,44.0,29.53,NE,53,6.0,8.0,92,0.00,,,0.00,Wunderground v.1.15,2013-02-27 15:33:00,
2013-02-27 10:42:00,46.3,44.1,29.53,East,86,6.0,6.0,92,0.00,,,0.00,Wunderground v.1.15,2013-02-27 15:42:00,
2013-02-27 10:47:00,46.3,44.1,29.53,ENE,71,5.0,6.0,92,0.00,,,0.00,Wunderground v.1.15,2013-02-27 15:47:00,
2013-02-27 10:57:00,46.3,44.1,29.54,ESE,113,4.0,5.0,92,0.00,,,0.00,Wunderground v.1.15,2013-02-27 15:57:00,
2013-02-27 11:02:00,46.3,44.1,29.54,ESE,117,3.0,8.0,92,0.00,,,0.00,Wunderground v.1.15,2013-02-27 16:02:00,
2013-02-27 11:12:00,46.3,44.1,29.55,East,79,2.0,2.0,92,0.00,,,0.00,Wunderground v.1.15,2013-02-27 16:12:00,
2013-02-27 11:18:00,46.2,44.0,29.54,East,92,2.0,2.0,92,0.00,,,0.00,Wunderground v.1.15,2013-02-27 16:18:00,
2013-02-27 11:27:00,46.1,44.2,29.53,ENE,74,3.0,4.0,93,0.00,,,0.00,Wunderground v.1.15,2013-02-27 16:27:00,
2013-02-27 11:32:00,46.1,43.9,29.53,ENE,75,3.0,3.0,92,0.00,,,0.00,Wunderground v.1.15,2013-02-27 16:32:00,
2013-02-27 11:42:00,46.0,44.1,29.54,North,5,3.0,3.0,93,0.00,,,0.00,Wunderground v.1.15,2013-02-27 16:42:00,
2013-02-27 11:47:00,45.9,44.0,29.54,WNW,300,1.0,3.0,93,0.00,,,0.00,Wunderground v.1.15,2013-02-27 16:47:00,
2013-02-27 11:57:00,45.9,44.0,29.54,WNW,300,0.0,0.0,93,0.00,,,0.00,Wunderground v.1.15,2013-02-27 16:57:00,
2013-02-27 12:02:00,45.8,43.9,29.54,North,355,1.0,2.0,93,0.00,,,0.00,Wunderground v.1.15,2013-02-27 17:02:00,
2013-02-27 12:12:00,45.7,44.1,29.54,NE,52,1.0,3.0,94,0.00,,,0.00,Wunderground v.1.15,2013-02-27 17:12:00,
2013-02-27 12:17:00,45.6,44.0,29.55,SW,220,2.0,3.0,94,0.00,,,0.00,Wunderground v.1.15,2013-02-27 17:17:00,
2013-02-27 12:27:00,45.6,44.3,29.56,West,263,1.0,2.0,95,0.00,,,0.00,Wunderground v.1.15,2013-02-27 17:27:00,
2013-02-27 12:36:00,45.5,44.2,29.56,West,264,1.0,1.0,95,0.00,,,0.00,Wunderground v.1.15,2013-02-27 17:36:00,
2013-02-27 12:47:00,45.2,43.9,29.56,West,263,1.0,1.0,95,0.00,,,0.00,Wunderground v.1.15,2013-02-27 17:47:00,
2013-02-27 12:56:00,44.9,43.8,29.56,West,263,0.0,0.0,96,0.00,,,0.00,Wunderground v.1.15,2013-02-27 17:56:00,
2013-02-27 13:02:00,44.8,43.7,29.56,West,261,1.0,1.0,96,0.00,,,0.00,Wunderground v.1.15,2013-02-27 18:02:00,
2013-02-27 13:11:00,44.4,43.1,29.56,SW,219,1.0,2.0,95,0.00,,,0.00,Wunderground v.1.15,2013-02-27 18:11:00,
2013-02-27 13:17:00,44.4,43.1,29.56,West,262,1.0,1.0,95,0.00,,,0.00,Wunderground v.1.15,2013-02-27 18:17:00,
2013-02-27 13:22:00,44.9,43.8,29.55,WNW,292,0.0,1.0,96,0.00,,,0.00,Wunderground v.1.15,2013-02-27 18:22:00,
2013-02-27 13:27:00,45.4,44.3,29.54,ENE,57,0.0,4.0,96,0.00,,,0.00,Wunderground v.1.15,2013-02-27 18:27:00,
2013-02-27 13:33:00,45.8,44.2,29.54,NE,52,1.0,4.0,94,0.00,,,0.00,Wunderground v.1.15,2013-02-27 18:33:00,
2013-02-27 13:42:00,46.3,44.1,29.55,SW,219,1.0,1.0,92,0.00,,,0.00,Wunderground v.1.15,2013-02-27 18:42:00,
2013-02-27 13:48:00,46.6,44.7,29.55,SW,219,0.0,0.0,93,0.00,,,0.00,Wunderground v.1.15,2013-02-27 18:48:00,
2013-02-27 13:57:00,46.7,43.9,29.55,SW,219,0.0,0.0,90,0.00,,,0.00,Wunderground v.1.15,2013-02-27 18:57:00,
2013-02-27 14:03:00,46.9,44.1,29.55,SW,227,0.0,1.0,90,0.00,,,0.00,Wunderground v.1.15,2013-02-27 19:03:00,
2013-02-27 14:12:00,47.4,42.5,29.55,WSW,257,2.0,2.0,83,0.00,,,0.00,Wunderground v.1.15,2013-02-27 19:12:00,
2013-02-27 14:17:00,47.2,42.6,29.56,WSW,256,3.0,3.0,84,0.00,,,0.00,Wunderground v.1.15,2013-02-27 19:17:00,
2013-02-27 14:27:00,47.4,42.2,29.56,WSW,256,2.0,2.0,82,0.00,,,0.00,Wunderground v.1.15,2013-02-27 19:27:00,
2013-02-27 14:33:00,47.1,41.9,29.57,West,263,2.0,2.0,82,0.00,,,0.00,Wunderground v.1.15,2013-02-27 19:33:00,
2013-02-27 14:42:00,47.1,41.2,29.57,SSW,213,2.0,6.0,80,0.00,,,0.00,Wunderground v.1.15,2013-02-27 19:42:00,
2013-02-27 14:47:00,47.1,41.2,29.57,West,260,2.0,6.0,80,0.00,,,0.00,Wunderground v.1.15,2013-02-27 19:47:00,
2013-02-27 14:57:00,46.9,41.1,29.57,SSE,167,2.0,2.0,80,0.00,,,0.00,Wunderground v.1.15,2013-02-27 19:57:00,
2013-02-27 15:02:00,46.8,41.0,29.57,West,265,2.0,2.0,80,0.00,,,0.00,Wunderground v.1.15,2013-02-27 20:02:00,
2013-02-27 15:12:00,46.9,40.4,29.58,West,261,2.0,2.0,78,0.00,,,0.00,Wunderground v.1.15,2013-02-27 20:12:00,
2013-02-27 15:17:00,46.8,40.3,29.58,West,261,1.0,2.0,78,0.00,,,0.00,Wunderground v.1.15,2013-02-27 20:17:00,
2013-02-27 15:27:00,46.8,40.0,29.58,West,263,2.0,5.0,77,0.00,,,0.00,Wunderground v.1.15,2013-02-27 20:27:00,
2013-02-27 15:32:00,47.0,39.8,29.59,WSW,257,3.0,3.0,76,0.00,,,0.00,Wunderground v.1.15,2013-02-27 20:32:00,
2013-02-27 15:42:00,46.3,38.8,29.60,SW,226,3.0,5.0,75,0.00,,,0.00,Wunderground v.1.15,2013-02-27 20:42:00,
2013-02-27 15:47:00,45.9,39.1,29.60,West,266,3.0,5.0,77,0.00,,,0.00,Wunderground v.1.15,2013-02-27 20:47:00,
2013-02-27 15:57:00,45.4,38.6,29.61,West,277,2.0,2.0,77,0.00,,,0.00,Wunderground v.1.15,2013-02-27 20:57:00,
2013-02-27 16:02:00,45.3,38.8,29.61,West,263,2.0,3.0,78,0.00,,,0.00,Wunderground v.1.15,2013-02-27 21:02:00,
2013-02-27 16:12:00,45.0,38.6,29.61,West,261,3.0,3.0,78,0.00,,,0.00,Wunderground v.1.15,2013-02-27 21:12:00,
2013-02-27 16:17:00,45.0,38.9,29.61,West,276,2.0,3.0,79,0.00,,,0.00,Wunderground v.1.15,2013-02-27 21:17:00,
2013-02-27 16:27:00,44.9,38.8,29.61,West,268,2.0,2.0,79,0.00,,,0.00,Wunderground v.1.15,2013-02-27 21:27:00,
2013-02-27 16:32:00,44.9,38.8,29.61,West,268,1.0,2.0,79,0.00,,,0.00,Wunderground v.1.15,2013-02-27 21:32:00,
2013-02-27 16:41:00,44.9,38.5,29.61,West,268,1.0,1.0,78,0.00,,,0.00,Wunderground v.1.15,2013-02-27 21:41:00,
2013-02-27 16:47:00,44.9,38.5,29.61,West,268,1.0,1.0,78,0.00,,,0.00,Wunderground v.1.15,2013-02-27 21:47:00,
2013-02-27 16:56:00,44.8,38.4,29.61,West,268,1.0,1.0,78,0.00,,,0.00,Wunderground v.1.15,2013-02-27 21:56:00,
2013-02-27 17:02:00,44.7,38.6,29.61,West,268,1.0,1.0,79,0.00,,,0.00,Wunderground v.1.15,2013-02-27 22:02:00,
2013-02-27 17:12:00,44.6,38.2,29.62,West,268,1.0,1.0,78,0.00,,,0.00,Wunderground v.1.15,2013-02-27 22:12:00,
2013-02-27 17:17:00,44.5,38.1,29.63,West,268,1.0,1.0,78,0.00,,,0.00,Wunderground v.1.15,2013-02-27 22:17:00,
2013-02-27 17:27:00,44.4,38.3,29.63,West,268,1.0,1.0,79,0.00,,,0.00,Wunderground v.1.15,2013-02-27 22:27:00,
2013-02-27 17:32:00,44.4,38.3,29.63,West,268,1.0,1.0,79,0.00,,,0.00,Wunderground v.1.15,2013-02-27 22:32:00,
2013-02-27 17:42:00,44.3,38.2,29.63,West,268,0.0,0.0,79,0.00,,,0.00,Wunderground v.1.15,2013-02-27 22:42:00,
2013-02-27 17:47:00,44.2,38.1,29.64,West,268,0.0,0.0,79,0.00,,,0.00,Wunderground v.1.15,2013-02-27 22:47:00,
2013-02-27 17:57:00,44.1,38.3,29.64,West,268,1.0,1.0,80,0.00,,,0.00,Wunderground v.1.15,2013-02-27 22:57:00,
2013-02-27 18:02:00,44.1,38.0,29.64,West,268,0.0,0.0,79,0.00,,,0.00,Wunderground v.1.15,2013-02-27 23:02:00,
2013-02-27 18:12:00,44.1,38.3,29.65,West,268,0.0,0.0,80,0.00,,,0.00,Wunderground v.1.15,2013-02-27 23:12:00,
2013-02-27 18:17:00,44.0,38.2,29.65,West,268,0.0,0.0,80,0.00,,,0.00,Wunderground v.1.15,2013-02-27 23:17:00,
2013-02-27 18:27:00,43.7,38.3,29.65,West,268,0.0,1.0,81,0.00,,,0.00,Wunderground v.1.15,2013-02-27 23:27:00,
2013-02-27 18:32:00,43.6,38.2,29.65,West,268,0.0,0.0,81,0.00,,,0.00,Wunderground v.1.15,2013-02-27 23:32:00,
2013-02-27 18:41:00,43.4,38.3,29.65,West,268,0.0,0.0,82,0.00,,,0.00,Wunderground v.1.15,2013-02-27 23:41:00,
2013-02-27 18:47:00,43.4,38.0,29.66,West,268,0.0,1.0,81,0.00,,,0.00,Wunderground v.1.15,2013-02-27 23:47:00,
2013-02-27 18:56:00,43.3,37.9,29.66,West,268,0.0,1.0,81,0.00,,,0.00,Wunderground v.1.15,2013-02-27 23:56:00,
2013-02-27 19:02:00,43.3,37.9,29.66,West,268,0.0,0.0,81,0.00,,,0.00,Wunderground v.1.15,2013-02-28 00:02:00,
2013-02-27 19:11:00,43.3,38.2,29.66,West,268,0.0,0.0,82,0.00,,,0.00,Wunderground v.1.15,2013-02-28 00:11:00,
2013-02-27 19:17:00,43.1,38.0,29.66,West,268,0.0,0.0,82,0.00,,,0.00,Wunderground v.1.15,2013-02-28 00:17:00,
2013-02-27 19:26:00,43.0,38.2,29.66,West,268,0.0,0.0,83,0.00,,,0.00,Wunderground v.1.15,2013-02-28 00:26:00,
2013-02-27 19:32:00,42.9,37.8,29.66,West,268,0.0,0.0,82,0.00,,,0.00,Wunderground v.1.15,2013-02-28 00:32:00,
2013-02-27 19:41:00,42.7,37.6,29.66,West,268,0.0,0.0,82,0.00,,,0.00,Wunderground v.1.15,2013-02-28 00:41:00,
2013-02-27 19:47:00,42.6,37.5,29.66,West,268,0.0,0.0,82,0.00,,,0.00,Wunderground v.1.15,2013-02-28 00:47:00,
2013-02-27 19:56:00,42.3,37.5,29.66,West,268,0.0,0.0,83,0.00,,,0.00,Wunderground v.1.15,2013-02-28 00:56:00,
2013-02-27 20:02:00,42.3,37.5,29.67,West,268,0.0,0.0,83,0.00,,,0.00,Wunderground v.1.15,2013-02-28 01:02:00,
2013-02-27 20:11:00,42.2,37.4,29.66,West,268,0.0,0.0,83,0.00,,,0.00,Wunderground v.1.15,2013-02-28 01:11:00,
2013-02-27 20:17:00,42.1,37.6,29.67,West,268,0.0,0.0,84,0.00,,,0.00,Wunderground v.1.15,2013-02-28 01:17:00,
2013-02-27 20:26:00,42.1,37.6,29.67,West,268,0.0,0.0,84,0.00,,,0.00,Wunderground v.1.15,2013-02-28 01:26:00,
2013-02-27 20:32:00,42.1,37.6,29.67,West,268,0.0,0.0,84,0.00,,,0.00,Wunderground v.1.15,2013-02-28 01:32:00,
2013-02-27 20:41:00,42.0,37.5,29.67,West,268,0.0,0.0,84,0.00,,,0.00,Wunderground v.1.15,2013-02-28 01:41:00,
2013-02-27 20:47:00,41.8,37.3,29.67,West,268,0.0,0.0,84,0.00,,,0.00,Wunderground v.1.15,2013-02-28 01:47:00,
2013-02-27 20:56:00,41.5,37.3,29.67,West,268,0.0,0.0,85,0.00,,,0.00,Wunderground v.1.15,2013-02-28 01:56:00,
2013-02-27 21:02:00,41.4,37.2,29.67,West,268,0.0,0.0,85,0.00,,,0.00,Wunderground v.1.15,2013-02-28 02:02:00,
2013-02-27 21:11:00,41.3,37.1,29.67,West,268,0.0,0.0,85,0.00,,,0.00,Wunderground v.1.15,2013-02-28 02:11:00,
2013-02-27 21:18:00,41.3,37.4,29.67,West,268,0.0,0.0,86,0.00,,,0.00,Wunderground v.1.15,2013-02-28 02:18:00,
2013-02-27 21:27:00,41.3,37.7,29.67,West,268,0.0,0.0,87,0.00,,,0.00,Wunderground v.1.15,2013-02-28 02:27:00,
2013-02-27 21:33:00,41.3,37.7,29.67,West,268,0.0,0.0,87,0.00,,,0.00,Wunderground v.1.15,2013-02-28 02:33:00,
2013-02-27 21:42:00,41.3,37.7,29.67,West,268,0.0,0.0,87,0.00,,,0.00,Wunderground v.1.15,2013-02-28 02:42:00,
2013-02-27 21:48:00,41.3,37.7,29.67,West,268,0.0,0.0,87,0.00,,,0.00,Wunderground v.1.15,2013-02-28 02:48:00,
2013-02-27 21:57:00,41.1,37.5,29.67,West,268,0.0,0.0,87,0.00,,,0.00,Wunderground v.1.15,2013-02-28 02:57:00,
2013-02-27 22:03:00,40.7,37.4,29.67,West,268,0.0,0.0,88,0.00,,,0.00,Wunderground v.1.15,2013-02-28 03:03:00,
2013-02-27 22:12:00,40.1,37.1,29.66,West,268,0.0,0.0,89,0.00,,,0.00,Wunderground v.1.15,2013-02-28 03:12:00,
2013-02-27 22:17:00,39.8,37.1,29.66,West,268,0.0,0.0,90,0.00,,,0.00,Wunderground v.1.15,2013-02-28 03:17:00,
2013-02-27 22:27:00,39.6,37.2,29.66,West,268,0.0,0.0,91,0.00,,,0.00,Wunderground v.1.15,2013-02-28 03:27:00,
2013-02-27 22:32:00,39.4,37.0,29.66,West,268,0.0,0.0,91,0.00,,,0.00,Wunderground v.1.15,2013-02-28 03:32:00,
2013-02-27 22:42:00,39.3,37.2,29.66,West,268,0.0,0.0,92,0.00,,,0.00,Wunderground v.1.15,2013-02-28 03:42:00,
2013-02-27 22:48:00,39.3,37.2,29.65,West,268,0.0,0.0,92,0.00,,,0.00,Wunderground v.1.15,2013-02-28 03:48:00,
2013-02-27 22:57:00,39.4,37.3,29.65,West,268,0.0,0.0,92,0.00,,,0.00,Wunderground v.1.15,2013-02-28 03:57:00,
2013-02-27 23:02:00,39.4,37.3,29.65,West,268,0.0,0.0,92,0.00,,,0.00,Wunderground v.1.15,2013-02-28 04:02:00,
2013-02-27 23:12:00,39.3,37.2,29.64,West,268,0.0,0.0,92,0.00,,,0.00,Wunderground v.1.15,2013-02-28 04:12:00,
2013-02-27 23:17:00,39.3,37.2,29.64,West,268,0.0,0.0,92,0.00,,,0.00,Wunderground v.1.15,2013-02-28 04:17:00,
2013-02-27 23:27:00,39.2,37.1,29.64,West,268,0.0,0.0,92,0.00,,,0.00,Wunderground v.1.15,2013-02-28 04:27:00,
2013-02-27 23:32:00,39.1,37.0,29.64,West,268,0.0,0.0,92,0.00,,,0.00,Wunderground v.1.15,2013-02-28 04:32:00,
2013-02-27 23:42:00,39.0,37.1,29.64,West,268,0.0,0.0,93,0.00,,,0.00,Wunderground v.1.15,2013-02-28 04:42:00,
2013-02-27 23:48:00,38.8,36.7,29.64,West,268,0.0,0.0,92,0.00,,,0.00,Wunderground v.1.15,2013-02-28 04:48:00,
2013-02-27 23:57:00,38.8,36.9,29.64,West,268,0.0,0.0,93,0.00,,,0.00,Wunderground v.1.15,2013-02-28 04:57:00,